Time;durP1;ratioP1;P1;durP2;ratioP2;P2;SDS_P1;SDS_P2;PMS_P1;PMS_P2;Temp;Humidity;BMP_temperature;BMP_pressure;BME280_temperature;BME280_humidity;BME280_pressure;Samples;Min_cycle;Max_cycle;Signal;HPM_P1;HPM_P2
2022/03/27 00:00:21;;;;;;;19.17;9.88;;;9.30;56.90;;;7.71;66.98;101723.56;4957416;28;20563;-77
2022/03/27 00:02:48;;;;;;;22.10;12.02;;;8.30;57.70;;;7.73;65.52;101732.31;4971983;28;20121;-74
2022/03/27 00:05:36;;;;;;;23.88;12.10;;;8.30;57.70;;;7.82;63.55;101723.66;4973510;28;20038;-78
2022/03/27 00:08:03;;;;;;;23.70;15.13;;;8.20;58.00;;;7.57;64.76;101733.03;4971768;28;20054;-77
2022/03/27 00:11:23;;;;;;;26.08;16.45;;;8.20;58.30;;;7.49;66.45;101725.09;4972178;28;20042;-75
2022/03/27 00:13:17;;;;;;;24.13;15.05;;;8.10;58.80;;;7.35;66.76;101728.41;4971354;28;20047;-76
2022/03/27 00:15:45;;;;;;;23.42;14.90;;;8.00;59.10;;;7.35;71.62;101725.81;4955051;28;20058;-75
2022/03/27 00:18:11;;;;;;;23.30;13.15;;;8.00;61.40;;;7.37;68.38;101728.44;4970398;28;20462;-77
2022/03/27 00:20:38;;;;;;;22.65;12.55;;;7.90;60.80;;;7.23;70.95;101721.31;4972571;28;20043;-76
2022/03/27 00:23:07;;;;;;;28.38;11.75;;;7.90;61.80;;;7.24;71.39;101727.41;4971810;28;20043;-76
2022/03/27 00:25:34;;;;;;;15.80;12.45;;;7.90;62.60;;;7.31;69.90;101726.63;4971357;28;20061;-76
2022/03/27 00:28:02;;;;;;;22.27;12.13;;;7.80;62.90;;;7.37;73.14;101733.69;4987266;28;20043;-77
2022/03/27 00:30:30;;;;;;;18.35;11.63;;;7.70;64.00;;;7.26;73.40;101728.34;4971242;28;20049;-76
2022/03/27 00:32:57;;;;;;;20.70;13.05;;;7.70;65.30;;;6.99;72.33;101728.84;4985765;28;20459;-75
2022/03/27 00:35:24;;;;;;;19.38;12.15;;;7.60;64.90;;;6.90;70.69;101717.44;4990000;28;20046;-76
2022/03/27 00:37:52;;;;;;;20.17;11.20;;;9.20;65.20;;;7.04;70.16;101720.22;4987725;28;20038;-76
2022/03/27 00:40:19;;;;;;;18.80;11.05;;;7.50;64.80;;;6.95;72.73;101723.59;4980544;28;20137;-77
2022/03/27 00:42:46;;;;;;;20.48;10.88;;;7.50;66.30;;;6.77;74.90;101711.13;4986184;28;20504;-77
2022/03/27 00:45:13;;;;;;;22.58;12.70;;;7.80;67.40;;;6.86;77.10;101720.84;4990289;28;20042;-76
2022/03/27 00:47:40;;;;;;;22.05;12.18;;;7.40;68.80;;;6.74;79.02;101718.94;4991109;28;20038;-76
2022/03/27 00:50:08;;;;;;;24.38;12.45;;;7.40;70.00;;;6.87;81.08;101716.50;4989629;28;20047;-76
2022/03/27 00:52:35;;;;;;;18.95;12.35;;;7.30;70.90;;;6.83;78.83;101717.31;4989179;28;20042;-76
2022/03/27 00:55:02;;;;;;;18.42;11.23;;;7.30;71.40;;;6.84;77.88;101725.19;4988775;28;20069;-76
2022/03/27 00:57:30;;;;;;;22.05;12.52;;;7.20;71.30;;;6.88;74.75;101718.25;4989825;28;20061;-76
2022/03/27 00:59:57;;;;;;;24.67;13.35;;;7.20;71.50;;;6.78;80.71;101719.88;4989881;28;20057;-76
2022/03/27 01:02:25;;;;;;;22.92;12.95;;;7.20;73.40;;;6.71;78.32;101718.03;4957237;28;20069;-77
2022/03/27 01:04:57;;;;;;;24.10;11.10;;;7.20;73.60;;;6.65;81.42;101724.06;4973238;28;20046;-77
2022/03/27 01:07:24;;;;;;;22.33;11.68;;;7.10;74.50;;;6.55;81.16;101725.66;4990178;28;20050;-74
2022/03/27 01:09:51;;;;;;;27.77;12.23;;;7.10;75.00;;;6.62;80.83;101716.16;4974249;28;20046;-77
2022/03/27 01:12:24;;;;;;;23.02;11.60;;;7.10;75.20;;;6.53;82.66;101720.41;4973025;28;20054;-77
2022/03/27 01:14:53;;;;;;;23.13;13.18;;;7.00;75.70;;;6.43;81.51;101718.50;5005510;28;20050;-76
2022/03/27 01:17:24;;;;;;;21.43;11.23;;;7.00;76.10;;;6.59;77.33;101713.50;4988902;28;20443;-76
2022/03/27 01:19:54;;;;;;;21.23;11.70;;;6.90;75.20;;;6.33;80.17;101709.66;4989587;28;20046;-76
2022/03/27 01:22:23;;;;;;;20.42;12.27;;;6.90;75.60;;;6.29;83.06;101706.97;4989975;28;20038;-76
2022/03/27 01:24:52;;;;;;;22.90;12.77;;;6.90;77.40;;;6.20;83.54;101705.97;4988733;28;20145;-75
2022/03/27 01:27:19;;;;;;;21.00;11.43;;;6.90;77.60;;;6.26;81.30;101702.59;4972709;28;20052;-76
2022/03/27 01:29:46;;;;;;;23.10;13.25;;;8.70;78.50;;;6.23;85.29;101702.50;5007613;28;20031;-76
2022/03/27 01:32:14;;;;;;;20.48;11.20;;;6.80;79.20;;;6.21;88.58;101697.28;4989268;28;20046;-77
2022/03/27 01:34:44;;;;;;;21.98;13.40;;;6.90;81.20;;;6.02;88.82;101703.94;4972223;28;20046;-77
2022/03/27 01:37:14;;;;;;;24.63;12.05;;;6.70;80.00;;;6.14;90.73;101710.22;4989281;28;20113;-77
2022/03/27 01:39:42;;;;;;;23.50;13.20;;;6.60;82.00;;;6.04;90.26;101693.53;4989323;28;20097;-77
2022/03/27 01:42:09;;;;;;;26.90;14.90;;;6.90;83.10;;;6.01;93.31;101696.03;4988605;28;20041;-77
2022/03/27 01:44:36;;;;;;;21.88;12.40;;;6.80;84.00;;;6.04;94.30;101694.41;4989518;28;20046;-77
2022/03/27 01:47:04;;;;;;;17.13;11.80;;;6.50;84.80;;;5.90;88.56;101690.63;4984400;28;20053;-77
2022/03/27 01:49:32;;;;;;;21.63;11.32;;;6.50;83.10;;;5.91;94.39;101693.28;4953740;28;20412;-77
2022/03/27 01:51:59;;;;;;;20.67;11.85;;;6.40;85.40;;;5.95;94.96;101687.25;4953696;28;20045;-77
2022/03/27 01:54:26;;;;;;;22.80;12.48;;;7.20;86.50;;;6.03;95.78;101691.78;4968253;28;20069;-75
2022/03/27 01:56:53;;;;;;;24.15;13.23;;;7.00;87.60;;;6.07;92.86;101698.81;4953873;28;20046;-77
2022/03/27 01:59:21;;;;;;;20.65;11.18;;;6.40;86.90;;;6.10;94.59;101688.38;4984507;28;20439;-77
2022/03/27 02:01:49;;;;;;;18.75;10.98;;;6.50;86.50;;;5.84;93.02;101693.16;4953928;28;20133;-78
2022/03/27 02:04:17;;;;;;;21.70;11.02;;;6.50;85.90;;;5.82;92.20;101693.13;4968070;28;20074;-77
2022/03/27 02:06:44;;;;;;;21.25;11.55;;;6.50;86.00;;;5.87;92.86;101690.59;4968439;28;20039;-75
2022/03/27 02:09:12;;;;;;;18.90;10.45;;;6.30;86.10;;;5.72;97.47;101694.69;4952371;28;20046;-76
2022/03/27 02:11:41;;;;;;;22.15;12.73;;;6.30;87.80;;;5.66;95.34;101692.84;4976677;28;20042;-75
2022/03/27 02:14:09;;;;;;;18.38;11.75;;;6.30;87.90;;;5.73;96.24;101699.06;4987078;28;20045;-76
2022/03/27 02:16:38;;;;;;;16.65;11.32;;;6.30;88.50;;;5.54;93.48;101703.06;4988152;28;20050;-77
2022/03/27 02:19:09;;;;;;;21.80;13.00;;;6.20;87.20;;;5.38;97.89;101692.34;4987986;28;20081;-77
2022/03/27 02:21:38;;;;;;;19.75;11.52;;;6.20;87.70;;;5.45;98.72;101700.31;4988645;28;20054;-75
2022/03/27 02:24:06;;;;;;;16.80;11.13;;;6.40;88.70;;;5.44;97.09;101704.63;4972471;28;20046;-76
2022/03/27 02:26:34;;;;;;;22.67;11.43;;;6.00;88.50;;;5.31;98.27;101697.47;4952054;28;20055;-77
2022/03/27 02:29:02;;;;;;;20.85;12.88;;;6.00;88.40;;;5.25;99.60;101706.03;4982971;28;20046;-77
2022/03/27 02:31:29;;;;;;;22.27;11.45;;;7.70;90.00;;;5.14;100.00;101707.56;4988318;28;20050;-75
2022/03/27 02:33:56;;;;;;;20.25;11.40;;;6.10;89.40;;;5.24;100.00;101714.72;4988426;28;20042;-76
2022/03/27 02:36:23;;;;;;;18.85;11.02;;;5.90;90.40;;;5.20;100.00;101707.66;4987929;28;20069;-77
2022/03/27 02:38:50;;;;;;;17.58;11.18;;;5.80;90.40;;;5.05;100.00;101709.09;4988232;28;20045;-75
2022/03/27 02:41:17;;;;;;;14.93;10.20;;;5.80;90.10;;;5.10;100.00;101710.09;4988005;28;20054;-76
2022/03/27 02:43:44;;;;;;;17.13;10.68;;;5.90;90.20;;;5.13;100.00;101701.44;4988167;28;20073;-75
2022/03/27 02:46:11;;;;;;;17.50;10.98;;;5.70;90.60;;;5.04;100.00;101703.88;4988778;28;20034;-76
2022/03/27 02:48:38;;;;;;;18.73;10.50;;;5.70;90.60;;;4.93;100.00;101701.06;4987935;28;20050;-75
2022/03/27 02:51:05;;;;;;;21.67;11.88;;;5.60;91.00;;;4.91;100.00;101710.53;4972023;28;20476;-77
2022/03/27 02:53:33;;;;;;;17.90;10.75;;;5.70;90.80;;;4.80;100.00;101703.41;4987552;28;20038;-76
2022/03/27 02:56:00;;;;;;;22.48;12.85;;;5.70;90.20;;;4.47;100.00;101703.53;4971399;28;20054;-76
2022/03/27 02:58:27;;;;;;;18.35;10.95;;;5.60;90.00;;;4.42;100.00;101703.41;4988229;28;20057;-78
2022/03/27 03:00:54;;;;;;;21.63;12.00;;;5.40;89.90;;;4.31;100.00;101707.53;4989058;28;20221;-75
2022/03/27 03:03:22;;;;;;;15.50;11.40;;;5.30;90.40;;;4.48;100.00;101708.78;4970139;28;20120;-77
2022/03/27 03:05:50;;;;;;;29.13;12.23;;;5.20;91.60;;;4.55;100.00;101709.81;4987031;28;20042;-76
2022/03/27 03:08:18;;;;;;;20.58;11.82;;;5.20;92.20;;;4.53;100.00;101706.28;4987733;28;20068;-77
2022/03/27 03:10:45;;;;;;;18.92;10.32;;;5.20;92.20;;;4.62;100.00;101708.22;4988047;28;20046;-76
2022/03/27 03:13:12;;;;;;;22.33;11.35;;;5.20;92.50;;;4.75;100.00;101707.63;4972316;28;20050;-74
2022/03/27 03:15:42;;;;;;;19.33;11.10;;;5.20;92.50;;;4.78;100.00;101710.31;4986705;28;20046;-75
2022/03/27 03:18:10;;;;;;;;;;;5.30;92.50;;;4.75;100.00;101712.81;4987312;28;20077;-75
2022/03/27 03:20:39;;;;;;;22.30;11.43;;;5.30;92.50;;;4.78;100.00;101709.41;4971254;28;19992;-75
2022/03/27 03:23:08;;;;;;;21.35;10.65;;;5.30;92.40;;;4.78;100.00;101701.59;4986199;28;20042;-75
2022/03/27 03:25:35;;;;;;;19.23;10.80;;;5.30;92.90;;;4.75;100.00;101709.34;4986670;28;20121;-75
2022/03/27 03:28:22;;;;;;;16.20;10.48;;;5.30;92.80;;;4.86;100.00;101710.47;4987092;28;20046;-77
2022/03/27 03:30:49;;;;;;;17.52;10.85;;;5.40;92.50;;;4.73;100.00;101713.66;4987396;28;20077;-77
2022/03/27 03:33:16;;;;;;;15.52;11.25;;;5.30;92.50;;;4.74;100.00;101716.28;4985939;28;20045;-77
2022/03/27 03:35:43;;;;;;;16.58;10.48;;;5.30;92.90;;;4.62;100.00;101716.91;4987292;28;20058;-77
2022/03/27 03:38:10;;;;;;;18.20;10.77;;;5.30;92.10;;;4.68;100.00;101718.78;4984256;28;20049;-77
2022/03/27 03:40:40;;;;;;;19.73;11.25;;;5.30;92.00;;;4.69;100.00;101715.31;4983708;28;20047;-78
2022/03/27 03:43:09;;;;;;;16.90;9.93;;;5.20;92.40;;;4.71;100.00;101717.97;4999271;28;20057;-75
2022/03/27 03:45:37;;;;;;;17.65;11.15;;;5.20;92.60;;;4.70;100.00;101711.88;4998896;28;20057;-75
2022/03/27 03:48:05;;;;;;;16.55;11.30;;;5.20;92.50;;;4.76;100.00;101717.22;4999006;28;20572;-75
2022/03/27 03:50:35;;;;;;;19.63;11.05;;;5.20;92.70;;;4.79;100.00;101716.41;4999980;28;20443;-75
2022/03/27 03:53:03;;;;;;;20.70;11.07;;;5.20;92.70;;;4.76;100.00;101704.19;4999506;28;20552;-75
2022/03/27 03:55:31;;;;;;;19.50;11.13;;;5.30;93.20;;;4.79;100.00;101713.78;4982578;28;20053;-76
2022/03/27 03:57:58;;;;;;;17.70;11.05;;;6.20;93.50;;;4.80;100.00;101712.94;4998791;28;20066;-75
2022/03/27 04:00:25;;;;;;;18.58;11.50;;;5.20;92.80;;;4.73;100.00;101711.91;4981134;28;20061;-77
2022/03/27 04:02:53;;;;;;;20.55;12.50;;;5.30;92.90;;;4.73;100.00;101709.31;4997889;28;20109;-75
2022/03/27 04:05:20;;;;;;;22.73;11.77;;;5.20;93.10;;;4.69;100.00;101710.09;4999276;28;20061;-75
2022/03/27 04:07:47;;;;;;;20.30;11.85;;;5.20;92.80;;;4.66;100.00;101715.25;4983293;28;20050;-76
2022/03/27 04:10:15;;;;;;;21.00;11.63;;;5.80;92.80;;;4.57;100.00;101717.66;5000550;28;20047;-76
2022/03/27 04:12:42;;;;;;;16.17;11.63;;;5.10;92.60;;;4.49;100.00;101715.75;5002627;28;20073;-76
2022/03/27 04:15:09;;;;;;;17.45;11.60;;;5.90;92.90;;;4.25;100.00;101709.13;4986481;28;20074;-77
2022/03/27 04:17:48;;;;;;;22.00;11.50;;;5.10;93.20;;;4.31;100.00;101715.34;4987806;28;20047;-77
2022/03/27 04:20:17;;;;;;;21.27;12.23;;;6.30;93.70;;;4.43;100.00;101713.00;4967210;28;20086;-77
2022/03/27 04:22:45;;;;;;;24.77;11.23;;;4.90;93.40;;;4.40;100.00;101723.34;4967548;28;20057;-76
2022/03/27 04:25:15;;;;;;;25.85;11.43;;;4.90;94.10;;;4.39;100.00;101713.78;4970642;28;20127;-75
2022/03/27 04:27:43;;;;;;;18.20;11.80;;;5.00;94.30;;;4.35;100.00;101714.56;4970915;28;20051;-75
2022/03/27 04:30:12;;;;;;;18.80;11.88;;;5.00;94.30;;;4.37;100.00;101718.97;4973032;28;20038;-75
2022/03/27 04:32:40;;;;;;;20.08;11.63;;;5.00;94.10;;;4.36;100.00;101729.34;4970239;28;20039;-76
2022/03/27 04:35:09;;;;;;;20.27;10.55;;;5.00;93.60;;;4.33;100.00;101722.31;4970976;28;20065;-75
2022/03/27 04:37:46;;;;;;;21.05;12.45;;;5.20;93.70;;;4.21;100.00;101719.41;4970769;28;20057;-76
2022/03/27 04:40:14;;;;;;;20.70;11.32;;;4.90;94.00;;;4.34;100.00;101736.25;4971213;28;20058;-78
2022/03/27 04:42:42;;;;;;;17.67;11.95;;;4.90;94.10;;;4.36;100.00;101721.53;4986376;28;20129;-75
2022/03/27 04:45:11;;;;;;;19.20;12.95;;;4.80;93.80;;;4.37;100.00;101715.47;4973799;28;20423;-76
2022/03/27 04:47:39;;;;;;;22.10;14.40;;;4.80;94.00;;;4.28;100.00;101718.75;4989408;28;20676;-77
2022/03/27 04:50:08;;;;;;;23.33;14.23;;;4.90;94.20;;;4.33;100.00;101722.31;4991171;28;20041;-76
2022/03/27 04:52:37;;;;;;;22.50;13.95;;;4.90;94.40;;;4.40;100.00;101723.34;4990443;28;20058;-75
2022/03/27 04:55:05;;;;;;;22.27;15.07;;;4.90;94.50;;;4.46;100.00;101725.22;4980624;28;20061;-76
2022/03/27 04:57:38;;;;;;;23.90;16.30;;;5.00;94.70;;;4.37;100.00;101721.56;4992556;28;20053;-76
2022/03/27 05:00:11;;;;;;;22.95;15.60;;;5.00;94.60;;;4.34;100.00;101725.81;4977132;28;20057;-75
2022/03/27 05:02:40;;;;;;;26.45;15.77;;;5.00;94.30;;;4.34;100.00;101720.63;4989717;28;20411;-76
2022/03/27 05:05:10;;;;;;;18.95;12.70;;;4.90;94.50;;;4.39;100.00;101735.53;4991575;28;20049;-77
2022/03/27 05:07:42;;;;;;;22.40;12.82;;;4.90;94.10;;;4.30;100.00;101737.03;4991366;28;20401;-75
2022/03/27 05:10:12;;;;;;;18.25;13.38;;;4.90;94.10;;;4.10;100.00;101729.59;4989829;28;20046;-75
2022/03/27 05:12:42;;;;;;;17.85;12.13;;;4.80;94.70;;;4.08;100.00;101732.16;4989520;28;20066;-75
2022/03/27 05:15:09;;;;;;;23.00;14.07;;;4.80;94.30;;;4.15;100.00;101733.22;4991193;28;20388;-75
2022/03/27 05:17:54;;;;;;;20.45;13.23;;;4.80;94.60;;;4.31;100.00;101729.22;4973371;28;20435;-75
2022/03/27 05:20:23;;;;;;;21.33;13.70;;;4.70;94.50;;;4.28;100.00;101738.69;4987151;28;20070;-77
2022/03/27 05:22:50;;;;;;;18.15;12.27;;;4.80;95.00;;;4.23;100.00;101734.25;4969753;28;20043;-77
2022/03/27 05:25:18;;;;;;;19.30;12.80;;;5.40;94.80;;;4.19;100.00;101735.03;4986382;28;20042;-76
2022/03/27 05:27:56;;;;;;;20.33;12.95;;;6.60;95.20;;;4.14;100.00;101734.06;4981052;28;20049;-77
2022/03/27 05:30:25;;;;;;;21.20;15.45;;;5.40;95.00;;;4.03;100.00;101732.91;4991341;28;20807;-75
2022/03/27 05:32:54;;;;;;;20.92;13.70;;;4.70;95.10;;;4.06;100.00;101738.19;4973634;28;20058;-75
2022/03/27 05:35:22;;;;;;;19.25;12.30;;;4.70;95.30;;;3.87;100.00;101740.31;4973207;28;20046;-75
2022/03/27 05:37:50;;;;;;;19.42;13.23;;;6.00;95.80;;;4.04;100.00;101738.13;4973214;28;20065;-77
2022/03/27 05:40:20;;;;;;;20.08;13.10;;;4.70;95.10;;;4.13;100.00;101737.47;4989432;28;20126;-75
2022/03/27 05:42:48;;;;;;;26.10;12.68;;;6.70;95.70;;;4.03;100.00;101740.72;4990935;28;20680;-75
2022/03/27 05:45:16;;;;;;;19.33;12.25;;;5.40;95.70;;;4.01;100.00;101747.59;4990595;28;20050;-75
2022/03/27 05:47:43;;;;;;;19.73;12.48;;;4.80;95.20;;;3.99;100.00;101751.91;4988852;28;20070;-75
2022/03/27 05:50:13;;;;;;;20.55;13.93;;;4.70;95.30;;;3.90;100.00;101756.03;5005295;28;20138;-74
2022/03/27 05:52:44;;;;;;;22.25;13.23;;;4.60;95.30;;;3.96;100.00;101744.88;4988827;28;20042;-75
2022/03/27 05:55:12;;;;;;;20.00;12.02;;;4.60;95.60;;;3.89;100.00;101756.88;4973322;28;20417;-75
2022/03/27 05:57:42;;;;;;;18.77;11.70;;;4.60;95.40;;;3.98;100.00;101745.81;4973165;28;20057;-76
2022/03/27 06:00:12;;;;;;;22.65;12.68;;;4.60;95.50;;;4.01;100.00;101761.50;4989066;28;20674;-75
2022/03/27 06:02:44;;;;;;;16.80;11.02;;;4.60;95.50;;;4.17;100.00;101759.28;4989163;28;20670;-75
2022/03/27 06:05:11;;;;;;;18.83;11.73;;;4.70;95.30;;;4.19;100.00;101762.78;4990379;28;20054;-75
2022/03/27 06:07:44;;;;;;;20.08;13.70;;;6.00;95.70;;;4.43;100.00;101770.34;4973008;28;20061;-77
2022/03/27 06:10:12;;;;;;;22.90;14.02;;;4.80;95.80;;;4.34;100.00;101763.19;4988870;28;20046;-77
2022/03/27 06:12:39;;;;;;;19.05;13.85;;;4.80;95.30;;;4.39;100.00;101766.78;5004825;28;20042;-77
2022/03/27 06:15:08;;;;;;;22.70;13.52;;;6.70;95.60;;;4.64;100.00;101767.34;4988087;28;20042;-77
2022/03/27 06:17:47;;;;;;;22.90;14.95;;;5.00;95.50;;;4.63;100.00;101760.38;4988681;28;20046;-77
2022/03/27 06:20:21;;;;;;;23.80;14.17;;;5.10;95.10;;;4.83;100.00;101770.38;4988707;28;20089;-76
2022/03/27 06:22:49;;;;;;;19.55;13.10;;;5.20;95.60;;;4.77;100.00;101773.75;5005131;28;20368;-75
2022/03/27 06:25:19;;;;;;;19.60;13.25;;;5.80;95.60;;;4.69;100.00;101775.28;4988564;28;20066;-77
2022/03/27 06:27:48;;;;;;;21.40;14.02;;;5.40;95.20;;;4.80;100.00;101778.13;4987611;28;20047;-77
2022/03/27 06:30:24;;;;;;;23.70;14.13;;;6.10;95.10;;;4.74;100.00;101783.22;4989219;28;20114;-75
2022/03/27 06:32:58;;;;;;;20.88;13.40;;;5.30;94.80;;;4.80;100.00;101786.84;4987421;28;20655;-75
2022/03/27 06:35:26;;;;;;;22.50;15.77;;;5.80;95.70;;;4.94;100.00;101776.72;4988684;28;20049;-74
2022/03/27 06:37:54;;;;;;;22.48;13.23;;;6.60;96.50;;;4.95;100.00;101785.44;4975444;28;20065;-77
2022/03/27 06:40:21;;;;;;;21.33;14.90;;;5.50;96.00;;;5.18;100.00;101785.03;4989092;28;20046;-74
2022/03/27 06:42:49;;;;;;;20.38;14.00;;;5.50;96.30;;;5.36;100.00;101781.94;4989740;28;20054;-75
2022/03/27 06:45:34;;;;;;;27.23;14.32;;;5.70;96.90;;;5.54;100.00;101789.22;4989486;28;20113;-73
2022/03/27 06:48:02;;;;;;;24.05;15.35;;;5.80;96.50;;;5.66;100.00;101783.41;4972581;28;20054;-75
2022/03/27 06:50:29;;;;;;;22.05;14.82;;;6.40;97.00;;;5.78;100.00;101785.34;4989190;28;20594;-77
2022/03/27 06:52:56;;;;;;;21.42;15.13;;;6.10;97.30;;;5.88;100.00;101786.41;4987500;28;20058;-77
2022/03/27 06:55:25;;;;;;;23.58;16.55;;;6.10;97.70;;;6.07;100.00;101788.50;5005442;28;20500;-78
2022/03/27 06:58:11;;;;;;;26.65;16.33;;;6.30;98.30;;;6.22;100.00;101785.28;4989836;28;20049;-76
2022/03/27 07:03:27;;;;;;;21.05;15.52;;;6.60;99.00;;;6.50;100.00;101790.09;4987871;28;20058;-77
2022/03/27 07:05:58;;;;;;;23.42;15.73;;;6.70;98.70;;;6.70;100.00;101793.00;4972319;28;20050;-75
2022/03/27 07:08:27;;;;;;;26.58;16.33;;;6.90;98.80;;;6.84;100.00;101793.19;4972224;28;20049;-76
2022/03/27 07:10:55;;;;;;;20.92;15.30;;;7.00;99.00;;;6.98;100.00;101797.75;5008770;28;20044;-77
2022/03/27 07:13:25;;;;;;;22.40;14.95;;;7.10;98.90;;;7.05;100.00;101787.38;4993594;28;20042;-78
2022/03/27 07:15:52;;;;;;;20.85;15.05;;;7.30;98.60;;;7.16;100.00;101784.03;4977754;28;20038;-77
2022/03/27 07:18:20;;;;;;;20.33;14.52;;;7.40;98.20;;;7.26;100.00;101788.56;4992511;28;20046;-80
2022/03/27 07:20:51;;;;;;;21.33;13.75;;;7.40;97.70;;;7.38;100.00;101793.06;4993315;28;20050;-80
2022/03/27 07:23:21;;;;;;;19.13;12.35;;;8.20;98.10;;;7.60;100.00;101791.56;4976934;28;20069;-80
2022/03/27 07:25:53;;;;;;;19.27;11.50;;;7.60;97.90;;;7.79;100.00;101794.38;4992200;28;20077;-79
2022/03/27 07:28:30;;;;;;;14.65;11.00;;;7.80;98.10;;;8.03;100.00;101787.59;4989962;28;20708;-77
2022/03/27 07:30:58;;;;;;;16.50;11.60;;;8.00;98.30;;;8.13;100.00;101783.34;4973422;28;20662;-79
2022/03/27 07:33:42;;;;;;;13.90;11.25;;;8.10;97.90;;;8.30;100.00;101780.84;4987468;28;20065;-79
2022/03/27 07:36:12;;;;;;;15.30;10.70;;;8.30;97.70;;;8.45;100.00;101780.97;4989253;28;20060;-78
2022/03/27 07:38:39;;;;;;;14.43;10.50;;;9.80;98.00;;;8.60;100.00;101780.25;4990074;28;20049;-76
2022/03/27 07:41:06;;;;;;;16.60;11.65;;;8.60;97.40;;;8.70;100.00;101780.31;4973914;28;20046;-77
2022/03/27 07:43:33;;;;;;;16.35;11.50;;;8.70;97.20;;;8.88;100.00;101783.03;4990562;28;20050;-77
2022/03/27 07:46:00;;;;;;;16.15;11.25;;;8.80;97.20;;;9.00;100.00;101777.00;4992206;28;20043;-77
2022/03/27 07:48:27;;;;;;;13.25;10.43;;;8.90;97.00;;;9.13;100.00;101779.66;4974901;28;20073;-77
2022/03/27 07:50:56;;;;;;;16.13;10.52;;;9.60;96.90;;;9.18;100.00;101781.44;4991162;28;20046;-78
2022/03/27 07:53:27;;;;;;;13.52;10.93;;;9.20;96.50;;;9.30;100.00;101783.25;4990123;28;20042;-77
2022/03/27 07:55:55;;;;;;;18.35;11.10;;;9.30;96.60;;;9.41;100.00;101777.16;4991276;28;20056;-78
2022/03/27 07:58:22;;;;;;;14.43;10.10;;;9.40;96.40;;;9.54;100.00;101778.94;4989156;28;20145;-76
2022/03/27 08:00:49;;;;;;;17.38;12.48;;;9.50;96.30;;;9.71;100.00;101779.00;4979409;28;20065;-79
2022/03/27 08:03:16;;;;;;;16.08;11.60;;;9.60;96.20;;;9.76;100.00;101776.38;4996634;28;20050;-78
2022/03/27 08:05:47;;;;;;;15.77;11.60;;;9.70;95.80;;;9.89;100.00;101785.16;4995901;28;20054;-78
2022/03/27 08:08:14;;;;;;;18.10;10.85;;;9.80;95.80;;;10.00;100.00;101772.91;4982800;28;20046;-79
2022/03/27 08:10:40;;;;;;;17.05;10.93;;;9.90;95.80;;;10.12;100.00;101779.03;4994889;28;20432;-78
2022/03/27 08:13:10;;;;;;;16.00;11.05;;;10.70;95.80;;;10.26;100.00;101779.91;4994284;28;20100;-78
2022/03/27 08:15:41;;;;;;;17.73;11.20;;;10.20;95.60;;;10.42;100.00;101780.84;4995430;28;20076;-77
2022/03/27 08:18:10;;;;;;;;;;;10.30;95.40;;;10.56;100.00;101772.06;4978864;28;20471;-78
2022/03/27 08:20:38;;;;;;;17.13;11.63;;;10.40;95.50;;;10.70;100.00;101775.53;4980597;28;20024;-77
2022/03/27 08:23:10;;;;;;;14.73;11.38;;;9.70;95.10;;;10.87;100.00;101777.25;4996184;28;20046;-79
2022/03/27 08:28:24;;;;;;;16.35;11.55;;;10.90;94.90;;;11.11;100.00;101773.66;4990811;28;20045;-78
2022/03/27 08:30:51;;;;;;;14.43;11.23;;;11.00;94.60;;;11.21;100.00;101769.25;4957952;28;20074;-78
2022/03/27 08:33:18;;;;;;;16.58;11.13;;;12.40;94.70;;;11.26;100.00;101774.50;4975900;28;20050;-80
2022/03/27 08:35:46;;;;;;;16.38;10.80;;;11.20;94.20;;;11.32;98.52;101770.06;4957630;28;20098;-78
2022/03/27 08:38:16;;;;;;;15.30;11.38;;;11.30;93.90;;;11.46;96.23;101767.34;4960174;28;20051;-78
2022/03/27 08:40:53;;;;;;;13.70;10.43;;;12.30;93.90;;;11.59;94.36;101770.78;4959887;28;20058;-78
2022/03/27 08:43:20;;;;;;;19.15;11.10;;;11.50;93.50;;;11.76;92.61;101778.63;4958087;28;20147;-76
2022/03/27 08:45:47;;;;;;;15.50;10.80;;;11.60;93.20;;;11.85;92.73;101774.16;4973456;28;20047;-77
2022/03/27 08:48:16;;;;;;;15.07;10.43;;;11.70;93.10;;;11.91;90.73;101771.47;4971160;28;20063;-78
2022/03/27 08:51:08;;;;;;;15.48;11.52;;;11.80;92.90;;;12.04;91.16;101762.63;4956218;28;20043;-77
2022/03/27 08:54:06;;;;;;;14.18;10.50;;;11.90;92.90;;;12.17;89.67;101763.41;4971296;28;20074;-77
2022/03/27 08:56:34;;;;;;;17.08;11.63;;;12.00;92.70;;;12.36;87.22;101759.72;4977221;28;20117;-77
2022/03/27 08:59:07;;;;;;;16.75;10.82;;;12.20;92.50;;;12.43;84.48;101757.03;4962450;28;20046;-77
2022/03/27 09:01:35;;;;;;;16.23;10.75;;;12.30;92.20;;;12.59;81.79;101759.50;4975826;28;20047;-77
2022/03/27 09:04:03;;;;;;;16.42;11.18;;;12.70;92.00;;;12.75;80.62;101757.56;4974755;28;20047;-77
2022/03/27 09:06:31;;;;;;;19.73;11.32;;;12.60;91.70;;;12.88;77.56;101755.69;4955832;28;20055;-77
2022/03/27 09:08:58;;;;;;;21.58;12.02;;;12.70;91.40;;;12.95;76.16;101761.75;4954748;28;20066;-78
2022/03/27 09:11:30;;;;;;;15.00;10.57;;;12.80;91.00;;;13.10;75.79;101763.34;4978938;28;20073;-77
2022/03/27 09:13:57;;;;;;;18.55;11.07;;;12.90;91.00;;;13.18;71.93;101767.63;4989992;28;20054;-77
2022/03/27 09:16:24;;;;;;;17.73;10.73;;;13.00;90.50;;;13.37;70.49;101764.75;4957837;28;20039;-76
2022/03/27 09:19:01;;;;;;;19.38;12.38;;;13.30;90.20;;;13.50;68.82;101762.84;5006025;28;20133;-77
2022/03/27 09:21:28;;;;;;;15.82;10.90;;;13.30;89.90;;;13.55;68.01;101765.41;4990763;28;20038;-76
2022/03/27 09:24:02;;;;;;;18.55;11.82;;;13.50;89.30;;;13.70;67.77;101764.34;4989614;28;20038;-77
2022/03/27 09:26:32;;;;;;;17.88;11.00;;;13.50;89.00;;;13.81;66.47;101762.38;4987684;28;20072;-75
2022/03/27 09:29:10;;;;;;;13.07;10.40;;;13.60;88.60;;;13.94;63.72;101763.09;4989843;28;20062;-76
2022/03/27 09:31:38;;;;;;;16.63;10.52;;;13.70;87.50;;;14.04;63.54;101759.38;4976789;28;20129;-79
2022/03/27 09:34:07;;;;;;;17.27;12.10;;;13.80;87.10;;;14.16;61.29;101754.78;4977824;28;20046;-78
2022/03/27 09:36:42;;;;;;;17.95;11.05;;;14.00;86.20;;;14.18;61.73;101751.22;4995238;28;20041;-79
2022/03/27 09:39:22;;;;;;;14.13;10.57;;;14.10;86.10;;;14.35;59.74;101747.41;4975033;28;20148;-76
2022/03/27 09:41:54;;;;;;;;;;;14.20;85.00;;;14.53;60.27;101746.22;4989863;28;20474;-75
2022/03/27 09:44:29;;;;;;;14.93;10.30;;;14.30;85.20;;;14.58;58.37;101749.63;4989632;28;19933;-78
2022/03/27 09:47:01;;;;;;;17.70;10.50;;;14.40;84.20;;;14.71;58.41;101752.06;4991429;28;20070;-78
2022/03/27 09:49:31;;;;;;;16.90;10.55;;;14.50;83.80;;;14.79;56.57;101749.28;4973369;28;20785;-79
2022/03/27 09:52:11;;;;;;;15.85;10.82;;;14.60;83.00;;;14.84;56.63;101744.78;4991653;28;20051;-77
2022/03/27 09:55:03;;;;;;;19.98;11.75;;;14.70;82.50;;;15.01;55.84;101742.66;5008597;28;20042;-77
2022/03/27 09:57:40;;;;;;;16.55;12.75;;;14.80;82.40;;;15.12;54.90;101737.13;4991338;28;20499;-76
2022/03/27 10:00:18;;;;;;;18.50;11.60;;;14.90;81.30;;;15.24;54.19;101735.13;4993387;28;20108;-76
2022/03/27 10:02:48;;;;;;;13.98;11.30;;;15.00;80.80;;;15.31;53.08;101734.09;4990231;28;20035;-77
2022/03/27 10:05:21;;;;;;;23.80;11.75;;;15.10;79.80;;;15.40;51.90;101733.00;5007571;28;20046;-77
2022/03/27 10:07:56;;;;;;;15.10;10.50;;;15.20;78.80;;;15.53;52.07;101729.19;4988223;28;20042;-78
2022/03/27 10:10:26;;;;;;;16.17;10.27;;;15.30;78.90;;;15.67;50.58;101726.19;4992212;28;20052;-80
2022/03/27 10:12:59;;;;;;;15.10;11.05;;;15.40;77.40;;;15.89;49.36;101717.72;4993557;28;20053;-79
2022/03/27 10:15:29;;;;;;;15.90;11.38;;;15.50;76.40;;;15.92;48.13;101725.63;4976894;28;20511;-78
2022/03/27 10:18:20;;;;;;;16.02;10.10;;;15.70;75.20;;;16.01;47.79;101708.59;4977254;28;20054;-79
2022/03/27 10:20:57;;;;;;;14.43;10.40;;;15.70;74.10;;;16.10;46.32;101705.69;4969264;28;20083;-77
2022/03/27 10:23:26;;;;;;;16.42;11.35;;;15.90;72.40;;;16.20;46.37;101705.47;4969687;28;20055;-77